createdAt,value
2018-11-22T12:20:35.674Z,27.90
2018-11-22T12:25:38.345Z,28.07
2018-11-22T12:30:41.009Z,27.77
2018-11-22T12:35:49.475Z,28.63
2018-11-22T12:40:52.255Z,27.17
2018-11-22T12:45:54.935Z,27.97
2018-11-22T12:50:57.660Z,28.50
2018-11-22T12:56:00.805Z,27.37
2018-11-22T13:01:04.198Z,28.63
2018-11-22T13:06:06.922Z,31.00
2018-11-22T13:11:09.593Z,27.40
2018-11-22T13:16:12.230Z,26.90
2018-11-22T13:21:14.847Z,28.40
2018-11-22T13:26:17.686Z,28.73
2018-11-22T13:31:20.347Z,26.97
2018-11-22T13:36:23.010Z,27.77
2018-11-22T13:41:25.625Z,29.30
2018-11-22T13:46:28.296Z,28.63
2018-11-22T13:51:31.006Z,29.17
2018-11-22T13:56:33.765Z,28.30
2018-11-22T14:01:36.400Z,29.20
2018-11-22T14:06:39.032Z,30.23
2018-11-22T14:11:41.679Z,27.20
2018-11-22T14:16:44.370Z,30.23
2018-11-22T14:21:47.146Z,30.37
2018-11-22T14:26:49.966Z,32.17
2018-11-22T14:31:52.703Z,30.13
2018-11-22T14:36:55.506Z,31.07
2018-11-22T14:41:58.182Z,30.23
2018-11-22T14:47:00.995Z,28.77
2018-11-22T14:52:03.840Z,30.20
2018-11-22T14:57:07.582Z,31.07
2018-11-22T15:02:10.224Z,32.50
2018-11-22T15:07:12.916Z,31.20
2018-11-22T15:12:15.649Z,31.73
2018-11-22T15:17:18.275Z,32.97
2018-11-22T15:22:20.910Z,33.53
2018-11-22T15:27:23.647Z,33.17
2018-11-22T15:32:26.311Z,31.67
2018-11-22T15:37:29.034Z,31.20
2018-11-22T15:42:31.642Z,33.33
2018-11-22T15:47:34.290Z,32.67
2018-11-22T15:52:37.230Z,33.60
2018-11-22T15:57:40.728Z,32.37
2018-11-22T16:02:44.262Z,31.70
2018-11-22T16:07:46.910Z,31.63
2018-11-22T16:12:51.798Z,31.07
2018-11-22T16:17:54.503Z,32.17
2018-11-22T16:22:57.256Z,31.10
2018-11-22T16:27:59.917Z,32.03
2018-11-22T16:33:02.661Z,31.67
2018-11-22T16:38:05.666Z,30.77
2018-11-22T16:43:08.324Z,31.83
2018-11-22T16:48:12.181Z,31.63
2018-11-22T16:53:14.824Z,30.07
2018-11-22T16:58:17.462Z,30.67
2018-11-22T17:03:20.107Z,32.13
2018-11-22T17:08:22.745Z,31.53
2018-11-22T17:13:25.379Z,32.10
2018-11-22T17:18:28.001Z,31.87
2018-11-22T17:23:30.612Z,30.53
2018-11-22T17:28:33.257Z,31.73
2018-11-22T17:33:35.990Z,31.63
2018-11-22T17:38:38.634Z,32.57
2018-11-22T17:43:41.310Z,31.47
2018-11-22T17:48:43.959Z,31.63
2018-11-22T17:53:46.567Z,34.13
2018-11-22T17:58:49.281Z,31.40
2018-11-22T18:03:52.015Z,32.87
2018-11-22T18:08:54.721Z,31.50
2018-11-22T18:13:57.338Z,32.43
2018-11-22T18:18:59.938Z,32.50
2018-11-22T18:24:02.582Z,33.03
2018-11-22T18:29:05.382Z,32.30
2018-11-22T18:34:08.015Z,33.97
2018-11-22T18:39:10.614Z,33.53
2018-11-22T18:44:13.776Z,32.83
2018-11-22T18:49:16.410Z,34.13
2018-11-22T18:54:19.025Z,37.33
2018-11-22T18:59:21.602Z,33.87
2018-11-22T19:04:24.307Z,34.83
2018-11-22T19:09:26.888Z,35.07
2018-11-22T19:14:29.503Z,35.53
2018-11-22T19:19:32.147Z,36.00
2018-11-22T19:24:34.834Z,33.03
2018-11-22T19:29:37.441Z,33.80
2018-11-22T19:34:40.083Z,34.87
2018-11-22T19:39:42.937Z,34.90
2018-11-22T19:44:45.644Z,33.63
2018-11-22T19:49:48.295Z,34.70
2018-11-22T19:54:51.074Z,33.93
2018-11-22T19:59:53.815Z,33.17
2018-11-22T20:04:56.470Z,32.50
2018-11-22T20:09:59.305Z,32.97
2018-11-22T20:15:03.490Z,33.10
2018-11-22T20:20:08.366Z,32.67
2018-11-22T20:25:10.986Z,32.33
2018-11-22T20:30:17.024Z,32.00
2018-11-22T20:35:20.434Z,32.13
2018-11-22T20:40:24.326Z,33.87
2018-11-22T20:45:27.806Z,33.43
2018-11-22T20:50:31.116Z,32.47
2018-11-22T20:55:35.130Z,33.40
2018-11-22T21:00:39.258Z,35.27
2018-11-22T21:05:41.819Z,31.33
2018-11-22T21:10:44.429Z,29.33
2018-11-22T21:15:47.042Z,28.57
2018-11-22T21:20:49.654Z,31.53
2018-11-22T21:25:52.323Z,31.93
2018-11-22T21:30:54.941Z,31.97
2018-11-22T21:35:58.444Z,30.97
2018-11-22T21:41:01.100Z,30.70
2018-11-22T21:46:04.056Z,29.77
2018-11-22T21:51:06.677Z,26.57
2018-11-22T21:56:09.259Z,28.97
2018-11-22T22:01:11.860Z,25.80
2018-11-22T22:06:14.465Z,24.07
2018-11-22T22:11:17.041Z,23.37
2018-11-22T22:16:19.759Z,24.73
2018-11-22T22:21:22.488Z,22.17
2018-11-22T22:26:25.355Z,23.37
2018-11-22T22:31:27.947Z,22.87
2018-11-22T22:36:30.554Z,23.23
2018-11-22T22:41:33.147Z,21.33
2018-11-22T22:46:35.911Z,22.37
2018-11-22T22:51:38.663Z,22.47
2018-11-22T22:56:41.539Z,23.83
2018-11-22T23:01:44.380Z,23.90
2018-11-22T23:06:47.182Z,23.90
2018-11-22T23:11:49.946Z,23.87
2018-11-22T23:16:52.727Z,22.30
2018-11-22T23:21:55.380Z,23.67
2018-11-22T23:26:58.031Z,22.67
2018-11-22T23:32:00.830Z,23.40
2018-11-22T23:42:02.245Z,22.70
2018-11-22T23:47:05.098Z,24.67
2018-11-22T23:52:07.752Z,23.73
2018-11-22T23:57:10.327Z,23.07
